sensor_id;sensor_type;location;lat;lon;timestamp;pressure;altitude;pressure_sealevel;temperature;humidity
11038;BME280;5572;49.540;11.932;2024-03-06T00:09:59;96924.50;;;8.43;100.00
11038;BME280;5572;49.540;11.932;2024-03-06T00:12:26;96924.78;;;8.56;100.00
11038;BME280;5572;49.540;11.932;2024-03-06T00:14:52;96925.03;;;8.50;100.00
11038;BME280;5572;49.540;11.932;2024-03-06T00:17:19;96935.81;;;8.50;100.00
11038;BME280;5572;49.540;11.932;2024-03-06T00:19:46;96935.59;;;8.61;100.00
11038;BME280;5572;49.540;11.932;2024-03-06T00:22:12;96949.81;;;8.42;100.00
11038;BME280;5572;49.540;11.932;2024-03-06T00:24:39;96942.81;;;8.51;100.00
11038;BME280;5572;49.540;11.932;2024-03-06T00:27:07;96952.25;;;8.49;100.00
11038;BME280;5572;49.540;11.932;2024-03-06T00:29:34;96950.94;;;8.56;100.00
11038;BME280;5572;49.540;11.932;2024-03-06T00:32:03;96943.94;;;8.65;100.00
11038;BME280;5572;49.540;11.932;2024-03-06T00:34:30;96957.97;;;8.82;100.00
11038;BME280;5572;49.540;11.932;2024-03-06T00:36:57;96963.06;;;8.68;100.00
11038;BME280;5572;49.540;11.932;2024-03-06T00:39:23;96973.03;;;8.73;100.00
11038;BME280;5572;49.540;11.932;2024-03-06T00:41:50;96977.63;;;8.77;100.00
11038;BME280;5572;49.540;11.932;2024-03-06T00:44:17;96980.03;;;8.69;100.00
11038;BME280;5572;49.540;11.932;2024-03-06T00:46:44;96982.72;;;8.69;100.00
11038;BME280;5572;49.540;11.932;2024-03-06T00:49:10;96975.44;;;8.50;100.00
11038;BME280;5572;49.540;11.932;2024-03-06T00:51:37;96982.97;;;8.43;100.00
11038;BME280;5572;49.540;11.932;2024-03-06T00:54:04;96976.25;;;8.60;100.00
11038;BME280;5572;49.540;11.932;2024-03-06T00:56:30;96984.06;;;8.56;100.00
11038;BME280;5572;49.540;11.932;2024-03-06T00:58:57;96985.97;;;8.56;100.00
11038;BME280;5572;49.540;11.932;2024-03-06T01:01:25;96984.88;;;8.62;100.00
11038;BME280;5572;49.540;11.932;2024-03-06T01:03:52;96988.09;;;8.59;100.00
11038;BME280;5572;49.540;11.932;2024-03-06T01:06:19;96988.38;;;8.57;100.00
11038;BME280;5572;49.540;11.932;2024-03-06T01:08:46;96990.81;;;8.64;100.00
11038;BME280;5572;49.540;11.932;2024-03-06T01:11:12;97001.56;;;8.59;100.00
11038;BME280;5572;49.540;11.932;2024-03-06T01:13:40;97003.47;;;8.58;100.00
11038;BME280;5572;49.540;11.932;2024-03-06T01:16:06;97002.91;;;8.56;100.00
11038;BME280;5572;49.540;11.932;2024-03-06T01:18:34;97013.69;;;8.56;100.00
11038;BME280;5572;49.540;11.932;2024-03-06T01:21:01;97009.94;;;8.57;100.00
11038;BME280;5572;49.540;11.932;2024-03-06T01:23:28;97012.38;;;8.69;100.00
11038;BME280;5572;49.540;11.932;2024-03-06T01:25:55;97019.13;;;8.61;100.00
11038;BME280;5572;49.540;11.932;2024-03-06T01:28:21;97024.75;;;8.60;100.00
11038;BME280;5572;49.540;11.932;2024-03-06T01:30:48;97021.50;;;8.53;100.00
11038;BME280;5572;49.540;11.932;2024-03-06T01:33:14;97024.44;;;8.47;100.00
11038;BME280;5572;49.540;11.932;2024-03-06T01:35:43;97035.44;;;8.40;100.00
11038;BME280;5572;49.540;11.932;2024-03-06T01:38:09;97035.81;;;8.58;100.00
11038;BME280;5572;49.540;11.932;2024-03-06T01:40:36;97038.94;;;8.36;100.00
11038;BME280;5572;49.540;11.932;2024-03-06T01:43:03;97034.91;;;8.33;100.00
11038;BME280;5572;49.540;11.932;2024-03-06T01:45:30;97031.44;;;8.48;100.00
11038;BME280;5572;49.540;11.932;2024-03-06T01:47:57;97036.06;;;8.57;100.00
11038;BME280;5572;49.540;11.932;2024-03-06T01:50:24;97030.94;;;8.51;100.00
11038;BME280;5572;49.540;11.932;2024-03-06T01:52:52;97034.41;;;8.46;100.00
11038;BME280;5572;49.540;11.932;2024-03-06T01:55:19;97036.03;;;8.47;100.00
11038;BME280;5572;49.540;11.932;2024-03-06T01:57:46;97037.97;;;8.61;100.00
11038;BME280;5572;49.540;11.932;2024-03-06T02:00:13;97048.19;;;8.59;100.00
11038;BME280;5572;49.540;11.932;2024-03-06T02:02:41;97040.91;;;8.60;100.00
11038;BME280;5572;49.540;11.932;2024-03-06T02:05:09;97048.19;;;8.64;100.00
11038;BME280;5572;49.540;11.932;2024-03-06T02:07:36;97055.97;;;8.46;100.00
11038;BME280;5572;49.540;11.932;2024-03-06T02:10:07;97055.06;;;8.26;100.00
11038;BME280;5572;49.540;11.932;2024-03-06T02:12:35;97047.25;;;8.29;100.00
11038;BME280;5572;49.540;11.932;2024-03-06T02:15:02;97044.09;;;8.42;100.00
11038;BME280;5572;49.540;11.932;2024-03-06T02:17:29;97049.16;;;8.29;100.00
11038;BME280;5572;49.540;11.932;2024-03-06T02:31:13;97062.34;;;8.25;100.00
11038;BME280;5572;49.540;11.932;2024-03-06T02:34:08;97063.63;;;8.18;100.00
11038;BME280;5572;49.540;11.932;2024-03-06T02:36:53;97063.13;;;8.21;100.00
11038;BME280;5572;49.540;11.932;2024-03-06T02:42:27;97071.16;;;8.16;100.00
11038;BME280;5572;49.540;11.932;2024-03-06T02:45:12;97058.91;;;8.40;100.00
11038;BME280;5572;49.540;11.932;2024-03-06T02:47:40;97080.16;;;8.36;100.00
11038;BME280;5572;49.540;11.932;2024-03-06T02:50:07;97078.25;;;8.32;100.00
11038;BME280;5572;49.540;11.932;2024-03-06T02:52:34;97072.13;;;8.46;100.00
11038;BME280;5572;49.540;11.932;2024-03-06T02:55:00;97082.06;;;8.41;100.00
11038;BME280;5572;49.540;11.932;2024-03-06T06:08:41;97350.38;;;7.03;100.00
11038;BME280;5572;49.540;11.932;2024-03-06T06:11:10;97354.66;;;7.04;100.00
11038;BME280;5572;49.540;11.932;2024-03-06T06:13:39;97378.53;;;7.01;100.00
11038;BME280;5572;49.540;11.932;2024-03-06T06:16:09;97374.13;;;7.11;100.00
11038;BME280;5572;49.540;11.932;2024-03-06T06:18:39;97378.91;;;7.26;100.00
11038;BME280;5572;49.540;11.932;2024-03-06T06:21:08;97369.59;;;7.33;100.00
11038;BME280;5572;49.540;11.932;2024-03-06T06:23:36;97371.00;;;7.41;100.00
11038;BME280;5572;49.540;11.932;2024-03-06T06:26:08;97379.81;;;7.36;100.00
11038;BME280;5572;49.540;11.932;2024-03-06T06:28:40;97397.03;;;7.35;100.00
11038;BME280;5572;49.540;11.932;2024-03-06T06:31:09;97394.31;;;7.14;100.00
11038;BME280;5572;49.540;11.932;2024-03-06T06:33:38;97388.41;;;7.33;100.00
11038;BME280;5572;49.540;11.932;2024-03-06T06:36:07;97390.22;;;7.28;100.00
11038;BME280;5572;49.540;11.932;2024-03-06T06:38:34;97392.53;;;7.03;100.00
11038;BME280;5572;49.540;11.932;2024-03-06T06:41:04;97398.81;;;7.30;100.00
11038;BME280;5572;49.540;11.932;2024-03-06T06:43:34;97402.78;;;7.22;100.00
11038;BME280;5572;49.540;11.932;2024-03-06T06:46:03;97405.13;;;7.57;100.00
11038;BME280;5572;49.540;11.932;2024-03-06T06:48:32;97402.84;;;7.91;100.00
11038;BME280;5572;49.540;11.932;2024-03-06T06:51:01;97418.13;;;7.65;100.00
11038;BME280;5572;49.540;11.932;2024-03-06T06:53:30;97421.91;;;7.26;100.00
11038;BME280;5572;49.540;11.932;2024-03-06T06:56:00;97410.28;;;7.42;100.00
11038;BME280;5572;49.540;11.932;2024-03-06T06:58:29;97409.22;;;7.21;100.00
11038;BME280;5572;49.540;11.932;2024-03-06T07:01:01;97407.50;;;7.15;100.00
11038;BME280;5572;49.540;11.932;2024-03-06T07:03:31;97424.78;;;7.41;100.00
11038;BME280;5572;49.540;11.932;2024-03-06T07:06:11;97416.19;;;7.81;100.00
11038;BME280;5572;49.540;11.932;2024-03-06T07:09:20;97418.97;;;7.86;100.00
11038;BME280;5572;49.540;11.932;2024-03-06T07:12:35;97420.44;;;8.20;100.00
11038;BME280;5572;49.540;11.932;2024-03-06T07:18:55;97426.66;;;8.21;100.00
11038;BME280;5572;49.540;11.932;2024-03-06T07:25:41;97426.47;;;8.27;100.00
11038;BME280;5572;49.540;11.932;2024-03-06T07:29:31;97417.06;;;8.30;100.00
11038;BME280;5572;49.540;11.932;2024-03-06T07:32:34;97428.88;;;8.29;100.00
11038;BME280;5572;49.540;11.932;2024-03-06T08:26:56;97367.88;;;10.79;100.00
11038;BME280;5572;49.540;11.932;2024-03-06T08:29:25;97362.22;;;10.65;100.00
11038;BME280;5572;49.540;11.932;2024-03-06T08:32:02;97349.78;;;10.89;100.00
11038;BME280;5572;49.540;11.932;2024-03-06T08:34:33;97357.84;;;10.20;100.00
11038;BME280;5572;49.540;11.932;2024-03-06T08:37:02;97351.25;;;9.96;100.00
11038;BME280;5572;49.540;11.932;2024-03-06T08:39:32;97345.94;;;10.16;100.00
11038;BME280;5572;49.540;11.932;2024-03-06T08:42:19;97352.88;;;9.97;100.00
11038;BME280;5572;49.540;11.932;2024-03-06T08:44:51;97330.25;;;10.03;100.00
11038;BME280;5572;49.540;11.932;2024-03-06T08:47:32;97325.97;;;10.12;100.00
11038;BME280;5572;49.540;11.932;2024-03-06T08:50:01;97329.38;;;9.87;100.00
11038;BME280;5572;49.540;11.932;2024-03-06T08:52:31;97319.63;;;9.81;100.00
11038;BME280;5572;49.540;11.932;2024-03-06T08:55:08;97312.88;;;9.84;100.00
11038;BME280;5572;49.540;11.932;2024-03-06T08:57:40;97301.06;;;10.00;100.00
11038;BME280;5572;49.540;11.932;2024-03-06T09:00:09;97305.41;;;10.16;100.00
11038;BME280;5572;49.540;11.932;2024-03-06T09:02:40;97329.09;;;9.23;100.00
11038;BME280;5572;49.540;11.932;2024-03-06T09:05:10;97298.53;;;9.78;100.00
11038;BME280;5572;49.540;11.932;2024-03-06T09:07:40;97306.09;;;9.71;100.00
11038;BME280;5572;49.540;11.932;2024-03-06T09:10:10;97306.94;;;9.72;100.00
11038;BME280;5572;49.540;11.932;2024-03-06T09:12:44;97309.25;;;9.48;100.00
11038;BME280;5572;49.540;11.932;2024-03-06T09:15:25;97310.41;;;9.72;100.00
11038;BME280;5572;49.540;11.932;2024-03-06T09:18:08;97298.88;;;9.97;100.00
11038;BME280;5572;49.540;11.932;2024-03-06T09:20:41;97303.66;;;9.75;100.00
11038;BME280;5572;49.540;11.932;2024-03-06T09:23:10;97294.59;;;10.06;100.00
11038;BME280;5572;49.540;11.932;2024-03-06T09:26:05;97284.91;;;10.29;100.00
11038;BME280;5572;49.540;11.932;2024-03-06T12:10:02;97125.31;;;12.37;100.00
11038;BME280;5572;49.540;11.932;2024-03-06T12:12:33;97117.03;;;12.24;100.00
11038;BME280;5572;49.540;11.932;2024-03-06T12:15:03;97103.72;;;12.74;100.00
11038;BME280;5572;49.540;11.932;2024-03-06T12:17:48;97117.69;;;12.39;100.00
11038;BME280;5572;49.540;11.932;2024-03-06T12:20:24;97104.03;;;12.26;100.00
11038;BME280;5572;49.540;11.932;2024-03-06T12:22:57;97110.31;;;11.88;100.00
11038;BME280;5572;49.540;11.932;2024-03-06T12:25:26;97107.44;;;12.36;100.00
11038;BME280;5572;49.540;11.932;2024-03-06T12:27:54;97066.22;;;13.23;100.00
11038;BME280;5572;49.540;11.932;2024-03-06T12:30:22;97059.91;;;12.20;100.00
11038;BME280;5572;49.540;11.932;2024-03-06T12:32:56;97043.47;;;13.00;100.00
11038;BME280;5572;49.540;11.932;2024-03-06T12:35:23;97062.19;;;12.08;100.00
11038;BME280;5572;49.540;11.932;2024-03-06T12:37:50;97078.66;;;11.84;100.00
11038;BME280;5572;49.540;11.932;2024-03-06T12:40:18;97080.03;;;11.86;100.00
11038;BME280;5572;49.540;11.932;2024-03-06T12:42:46;97072.28;;;12.73;100.00
11038;BME280;5572;49.540;11.932;2024-03-06T12:45:15;97042.16;;;12.98;100.00
11038;BME280;5572;49.540;11.932;2024-03-06T12:47:42;97037.09;;;13.10;100.00
11038;BME280;5572;49.540;11.932;2024-03-06T12:50:09;97039.00;;;12.91;100.00
11038;BME280;5572;49.540;11.932;2024-03-06T12:52:36;97050.47;;;13.06;100.00
11038;BME280;5572;49.540;11.932;2024-03-06T12:55:03;97068.66;;;12.59;100.00
11038;BME280;5572;49.540;11.932;2024-03-06T12:57:31;97062.03;;;12.93;100.00
11038;BME280;5572;49.540;11.932;2024-03-06T12:59:59;97054.78;;;13.07;100.00
11038;BME280;5572;49.540;11.932;2024-03-06T13:02:26;97068.06;;;12.86;100.00
11038;BME280;5572;49.540;11.932;2024-03-06T13:04:52;97084.91;;;12.83;100.00
11038;BME280;5572;49.540;11.932;2024-03-06T13:07:19;97089.16;;;12.47;100.00
11038;BME280;5572;49.540;11.932;2024-03-06T13:09:45;97114.13;;;12.15;100.00
11038;BME280;5572;49.540;11.932;2024-03-06T13:12:12;97128.59;;;12.34;100.00
11038;BME280;5572;49.540;11.932;2024-03-06T13:14:39;97108.13;;;12.70;100.00
11038;BME280;5572;49.540;11.932;2024-03-06T13:17:06;97107.88;;;12.43;100.00
11038;BME280;5572;49.540;11.932;2024-03-06T13:19:33;97127.88;;;11.96;100.00
11038;BME280;5572;49.540;11.932;2024-03-06T13:22:00;97126.25;;;11.95;100.00
11038;BME280;5572;49.540;11.932;2024-03-06T13:24:26;97125.72;;;12.26;100.00
11038;BME280;5572;49.540;11.932;2024-03-06T13:26:53;97138.06;;;12.08;100.00
11038;BME280;5572;49.540;11.932;2024-03-06T13:29:20;97125.94;;;12.29;100.00
11038;BME280;5572;49.540;11.932;2024-03-06T13:31:46;97128.09;;;11.99;100.00
11038;BME280;5572;49.540;11.932;2024-03-06T13:34:14;97141.81;;;12.12;100.00
11038;BME280;5572;49.540;11.932;2024-03-06T13:36:42;97126.41;;;12.36;100.00
11038;BME280;5572;49.540;11.932;2024-03-06T13:39:08;97134.25;;;12.38;100.00
11038;BME280;5572;49.540;11.932;2024-03-06T13:41:35;97130.56;;;12.01;100.00
11038;BME280;5572;49.540;11.932;2024-03-06T13:44:02;97133.44;;;12.09;100.00
11038;BME280;5572;49.540;11.932;2024-03-06T13:46:28;97127.81;;;12.29;100.00
11038;BME280;5572;49.540;11.932;2024-03-06T13:48:55;97125.47;;;12.22;100.00
11038;BME280;5572;49.540;11.932;2024-03-06T13:51:23;97131.63;;;12.28;100.00
11038;BME280;5572;49.540;11.932;2024-03-06T13:53:49;97130.06;;;12.22;100.00
11038;BME280;5572;49.540;11.932;2024-03-06T13:56:16;97143.56;;;11.99;100.00
11038;BME280;5572;49.540;11.932;2024-03-06T13:58:43;97168.13;;;11.74;100.00
11038;BME280;5572;49.540;11.932;2024-03-06T14:01:10;97194.38;;;11.78;100.00
11038;BME280;5572;49.540;11.932;2024-03-06T14:03:37;97193.00;;;11.81;100.00
11038;BME280;5572;49.540;11.932;2024-03-06T14:06:05;97212.09;;;11.99;100.00
11038;BME280;5572;49.540;11.932;2024-03-06T14:08:33;97220.47;;;11.64;100.00
11038;BME280;5572;49.540;11.932;2024-03-06T14:11:01;97226.59;;;11.80;100.00
11038;BME280;5572;49.540;11.932;2024-03-06T14:13:30;97213.06;;;11.75;100.00
11038;BME280;5572;49.540;11.932;2024-03-06T14:15:57;97222.69;;;11.96;100.00
11038;BME280;5572;49.540;11.932;2024-03-06T14:18:25;97213.38;;;11.68;100.00
11038;BME280;5572;49.540;11.932;2024-03-06T14:20:52;97209.03;;;11.72;100.00
11038;BME280;5572;49.540;11.932;2024-03-06T14:23:18;97219.78;;;11.87;100.00
11038;BME280;5572;49.540;11.932;2024-03-06T14:25:47;97215.88;;;12.03;100.00
11038;BME280;5572;49.540;11.932;2024-03-06T14:28:13;97194.81;;;12.23;100.00
11038;BME280;5572;49.540;11.932;2024-03-06T14:46:47;97177.09;;;12.07;100.00
11038;BME280;5572;49.540;11.932;2024-03-06T14:49:14;97199.19;;;12.53;100.00
11038;BME280;5572;49.540;11.932;2024-03-06T14:51:42;97194.25;;;12.26;100.00
11038;BME280;5572;49.540;11.932;2024-03-06T14:54:08;97203.53;;;12.49;100.00
11038;BME280;5572;49.540;11.932;2024-03-06T14:56:35;97215.16;;;11.88;100.00
11038;BME280;5572;49.540;11.932;2024-03-06T14:59:02;97225.97;;;12.59;100.00
11038;BME280;5572;49.540;11.932;2024-03-06T15:01:28;97210.50;;;12.60;100.00
11038;BME280;5572;49.540;11.932;2024-03-06T15:03:57;97200.69;;;12.35;100.00
11038;BME280;5572;49.540;11.932;2024-03-06T15:06:24;97208.41;;;12.80;100.00
11038;BME280;5572;49.540;11.932;2024-03-06T15:08:51;97244.75;;;12.17;100.00
11038;BME280;5572;49.540;11.932;2024-03-06T15:11:19;97272.38;;;12.19;100.00
11038;BME280;5572;49.540;11.932;2024-03-06T15:13:46;97300.34;;;12.10;100.00
11038;BME280;5572;49.540;11.932;2024-03-06T15:16:13;97308.91;;;11.89;100.00
11038;BME280;5572;49.540;11.932;2024-03-06T15:18:39;97318.44;;;11.71;100.00
11038;BME280;5572;49.540;11.932;2024-03-06T15:21:07;97323.81;;;11.86;100.00
11038;BME280;5572;49.540;11.932;2024-03-06T15:23:34;97339.19;;;11.96;100.00
11038;BME280;5572;49.540;11.932;2024-03-06T15:26:00;97293.72;;;11.88;100.00
11038;BME280;5572;49.540;11.932;2024-03-06T15:28:27;97277.53;;;12.21;100.00
11038;BME280;5572;49.540;11.932;2024-03-06T15:30:54;97277.88;;;12.09;100.00
11038;BME280;5572;49.540;11.932;2024-03-06T15:33:21;97274.69;;;12.02;100.00
11038;BME280;5572;49.540;11.932;2024-03-06T15:35:48;97297.28;;;11.83;100.00
11038;BME280;5572;49.540;11.932;2024-03-06T15:38:16;97322.31;;;12.08;100.00
11038;BME280;5572;49.540;11.932;2024-03-06T15:40:43;97304.66;;;11.73;100.00
11038;BME280;5572;49.540;11.932;2024-03-06T15:43:09;97335.53;;;11.72;100.00
11038;BME280;5572;49.540;11.932;2024-03-06T15:45:36;97332.47;;;11.83;100.00
11038;BME280;5572;49.540;11.932;2024-03-06T15:48:03;97350.19;;;11.61;100.00
11038;BME280;5572;49.540;11.932;2024-03-06T15:50:31;97363.72;;;11.46;100.00
11038;BME280;5572;49.540;11.932;2024-03-06T15:52:58;97336.44;;;11.37;100.00
11038;BME280;5572;49.540;11.932;2024-03-06T15:55:26;97378.91;;;11.42;100.00
11038;BME280;5572;49.540;11.932;2024-03-06T15:57:53;97358.91;;;11.23;100.00
11038;BME280;5572;49.540;11.932;2024-03-06T16:00:21;97344.63;;;11.08;100.00
11038;BME280;5572;49.540;11.932;2024-03-06T16:02:48;97335.69;;;11.07;100.00
11038;BME280;5572;49.540;11.932;2024-03-06T16:05:14;97351.88;;;11.27;100.00
11038;BME280;5572;49.540;11.932;2024-03-06T16:07:41;97366.78;;;11.24;100.00
11038;BME280;5572;49.540;11.932;2024-03-06T16:10:08;97371.13;;;11.15;100.00
11038;BME280;5572;49.540;11.932;2024-03-06T16:12:36;97380.31;;;11.24;100.00
11038;BME280;5572;49.540;11.932;2024-03-06T16:15:04;97384.09;;;11.18;100.00
11038;BME280;5572;49.540;11.932;2024-03-06T16:17:30;97371.13;;;11.15;100.00
11038;BME280;5572;49.540;11.932;2024-03-06T16:19:59;97378.69;;;11.04;100.00
11038;BME280;5572;49.540;11.932;2024-03-06T16:22:30;97373.56;;;11.02;100.00
11038;BME280;5572;49.540;11.932;2024-03-06T16:24:56;97384.91;;;10.74;100.00
11038;BME280;5572;49.540;11.932;2024-03-06T16:27:23;97370.31;;;11.00;100.00
11038;BME280;5572;49.540;11.932;2024-03-06T16:29:50;97392.22;;;10.69;100.00
11038;BME280;5572;49.540;11.932;2024-03-06T16:32:17;97389.25;;;10.65;100.00
11038;BME280;5572;49.540;11.932;2024-03-06T16:34:44;97385.75;;;10.65;100.00
11038;BME280;5572;49.540;11.932;2024-03-06T16:37:10;97391.94;;;10.65;100.00
11038;BME280;5572;49.540;11.932;2024-03-06T16:39:37;97379.78;;;10.58;100.00
11038;BME280;5572;49.540;11.932;2024-03-06T16:42:04;97385.19;;;10.58;100.00
11038;BME280;5572;49.540;11.932;2024-03-06T16:44:31;97375.72;;;10.50;100.00
11038;BME280;5572;49.540;11.932;2024-03-06T16:46:59;97373.28;;;10.59;100.00
11038;BME280;5572;49.540;11.932;2024-03-06T16:49:25;97387.34;;;10.46;100.00
11038;BME280;5572;49.540;11.932;2024-03-06T16:51:52;97386.78;;;10.34;100.00
11038;BME280;5572;49.540;11.932;2024-03-06T16:54:18;97370.56;;;10.24;100.00
11038;BME280;5572;49.540;11.932;2024-03-06T16:56:45;97395.94;;;10.23;100.00
11038;BME280;5572;49.540;11.932;2024-03-06T16:59:11;97388.56;;;10.04;100.00
11038;BME280;5572;49.540;11.932;2024-03-06T17:01:38;97383.19;;;10.14;100.00
11038;BME280;5572;49.540;11.932;2024-03-06T17:04:06;97391.81;;;10.06;100.00
11038;BME280;5572;49.540;11.932;2024-03-06T17:06:33;97395.50;;;9.85;100.00
11038;BME280;5572;49.540;11.932;2024-03-06T17:08:59;97397.69;;;9.83;100.00
11038;BME280;5572;49.540;11.932;2024-03-06T17:11:26;97392.75;;;9.70;100.00
